createdAt,value
2017-07-23T00:00:02.540Z,18.1
2017-07-23T00:15:03.263Z,18.1
2017-07-23T00:30:03.046Z,17.8
2017-07-23T00:45:02.623Z,17.9
2017-07-23T01:00:03.199Z,17.8
2017-07-23T01:15:02.775Z,17.9
2017-07-23T01:30:03.456Z,18.7
2017-07-23T01:45:03.049Z,19.4
2017-07-23T02:00:02.623Z,19
2017-07-23T02:15:03.190Z,18.9
2017-07-23T02:30:03.796Z,18.4
2017-07-23T02:45:03.458Z,18
2017-07-23T03:00:04.113Z,17.9
2017-07-23T03:15:02.774Z,17.8
2017-07-23T03:30:03.561Z,17.6
2017-07-23T03:45:03.323Z,17.6
2017-07-23T04:00:07.159Z,17.2
2017-07-23T04:15:05.335Z,17.2
2017-07-23T04:30:05.937Z,17.6
2017-07-23T04:45:02.856Z,17.6
2017-07-23T05:00:03.542Z,17.5
2017-07-23T05:15:03.329Z,17.5
2017-07-23T05:30:03.127Z,17.5
2017-07-23T05:45:02.730Z,17.7
2017-07-23T06:00:07.360Z,17.9
2017-07-23T06:15:02.946Z,18.2
2017-07-23T06:30:02.693Z,18.2
2017-07-23T06:45:05.609Z,18.6
2017-07-23T07:00:05.574Z,18.4
2017-07-23T07:15:03.262Z,19
2017-07-23T07:30:03.096Z,18.9
2017-07-23T07:45:02.990Z,19.2
2017-07-23T08:00:03.036Z,19.6
2017-07-23T08:15:02.876Z,20.4
2017-07-23T08:30:03.585Z,20.3
2017-07-23T08:45:08.081Z,20.7
2017-07-23T09:00:02.741Z,20.8
2017-07-23T09:15:05.405Z,22
2017-07-23T09:30:06.101Z,22.4
2017-07-23T09:45:02.715Z,22.3
2017-07-23T10:00:06.468Z,23.4
2017-07-23T10:15:06.214Z,23.2
2017-07-23T10:30:05.678Z,22.6
2017-07-23T10:45:06.272Z,22.2
2017-07-23T11:00:06.171Z,22.9
2017-07-23T11:15:06.378Z,24
2017-07-23T11:30:06.301Z,24.2
2017-07-23T11:45:07.170Z,25.3
2017-07-23T12:00:06.221Z,24.1
2017-07-23T12:15:06.076Z,24.5
2017-07-23T12:30:08.011Z,22.4
2017-07-23T12:45:07.827Z,21.9
2017-07-23T13:00:03.425Z,22.4
2017-07-23T13:15:06.363Z,22.9
2017-07-23T13:30:06.753Z,24.2
2017-07-23T13:45:07.350Z,24
2017-07-23T14:00:07.083Z,25
2017-07-23T14:15:06.837Z,23.8
2017-07-23T14:30:06.998Z,24.3
2017-07-23T14:45:07.021Z,24.7
2017-07-23T15:00:06.833Z,24.2
2017-07-23T15:15:06.411Z,23.8
2017-07-23T15:30:06.752Z,23.3
2017-07-23T15:45:06.665Z,23
2017-07-23T16:00:06.183Z,23.2
2017-07-23T16:15:06.410Z,23
2017-07-23T16:30:05.650Z,22.8
2017-07-23T16:45:07.292Z,22.5
2017-07-23T17:00:06.727Z,22.3
2017-07-23T17:15:06.755Z,22
2017-07-23T17:30:06.239Z,21.8
2017-07-23T17:45:06.803Z,21.7
2017-07-23T18:00:06.644Z,21.5
2017-07-23T18:15:06.202Z,21.4
2017-07-23T19:00:05.730Z,20.6
2017-07-23T19:15:05.588Z,20.6
2017-07-23T19:30:04.828Z,20.8
2017-07-23T19:45:03.445Z,20.2
2017-07-23T20:00:03.324Z,19.9
2017-07-23T20:15:02.967Z,19.4
2017-07-23T20:30:02.888Z,19
2017-07-23T20:45:03.505Z,18.5
2017-07-23T21:00:03.054Z,18.7
2017-07-23T21:15:02.647Z,18.3
2017-07-23T21:30:03.317Z,18
2017-07-23T21:45:02.943Z,18.1
2017-07-23T22:00:04.484Z,17.7
2017-07-23T22:15:02.682Z,17.8
2017-07-23T22:30:03.451Z,17.6
2017-07-23T22:45:03.048Z,17.2
2017-07-23T23:00:02.715Z,17.4
2017-07-23T23:15:02.613Z,17.5
2017-07-23T23:30:03.528Z,17.1
2017-07-23T23:45:03.034Z,17.4
